createdAt,value
2022-08-04T00:04:14.035Z,8.10
2022-08-04T00:09:19.991Z,9.20
2022-08-04T00:14:14.657Z,11.70
2022-08-04T00:19:16.458Z,9.50
2022-08-04T00:24:17.270Z,10.10
2022-08-04T00:29:11.232Z,12.80
2022-08-04T00:34:12.257Z,9.00
2022-08-04T00:39:14.193Z,9.30
2022-08-04T00:44:23.713Z,9.20
2022-08-04T00:49:26.244Z,8.50
2022-08-04T00:54:17.026Z,9.20
2022-08-04T00:59:22.403Z,9.10
2022-08-04T01:04:22.342Z,11.50
2022-08-04T01:09:23.543Z,8.60
2022-08-04T01:14:25.550Z,15.20
2022-08-04T01:15:06.951Z,15.20
2022-08-04T01:19:25.013Z,11.00
2022-08-04T01:24:25.223Z,8.60
2022-08-04T01:29:15.923Z,11.00
2022-08-04T01:34:12.972Z,9.40
2022-08-04T01:39:23.273Z,12.80
2022-08-04T01:44:13.707Z,10.60
2022-08-04T01:49:16.829Z,12.40
2022-08-04T01:54:14.939Z,10.50
2022-08-04T01:59:17.033Z,11.70
2022-08-04T02:04:20.208Z,11.30
2022-08-04T02:09:19.514Z,11.40
2022-08-04T02:14:32.269Z,9.90
2022-08-04T02:19:24.303Z,10.10
2022-08-04T02:24:15.353Z,10.50
2022-08-04T02:29:18.563Z,10.60
2022-08-04T02:34:18.090Z,12.00
2022-08-04T02:39:13.261Z,14.10
2022-08-04T02:44:12.785Z,14.40
2022-08-04T02:49:11.556Z,17.00
2022-08-04T02:54:14.479Z,10.30
2022-08-04T02:59:12.850Z,15.80
2022-08-04T03:04:29.571Z,11.70
2022-08-04T03:09:34.995Z,9.70
2022-08-04T03:14:30.833Z,12.00
2022-08-04T03:19:30.849Z,13.80
2022-08-04T03:24:27.647Z,11.70
2022-08-04T03:29:36.795Z,11.60
2022-08-04T03:34:27.209Z,11.60
2022-08-04T03:39:30.979Z,11.30
2022-08-04T03:44:30.840Z,14.00
2022-08-04T03:49:31.160Z,11.00
2022-08-04T03:54:30.905Z,10.30
2022-08-04T03:59:30.871Z,11.60
2022-08-04T04:04:31.182Z,15.20
2022-08-04T04:09:22.332Z,10.50
2022-08-04T04:14:21.946Z,13.60
2022-08-04T04:19:27.657Z,11.50
2022-08-04T04:24:33.823Z,10.30
2022-08-04T04:29:29.189Z,11.50
2022-08-04T04:34:21.113Z,15.10
2022-08-04T04:39:24.862Z,14.50
2022-08-04T04:44:31.016Z,13.40
2022-08-04T04:49:22.706Z,12.00
2022-08-04T04:54:20.760Z,11.90
2022-08-04T04:59:15.194Z,10.70
2022-08-04T05:04:25.352Z,10.10
2022-08-04T05:09:23.674Z,14.20
2022-08-04T05:14:34.684Z,9.80
2022-08-04T05:19:22.429Z,9.20
2022-08-04T05:24:14.788Z,10.90
2022-08-04T05:29:23.121Z,9.70
2022-08-04T05:34:14.755Z,11.50
2022-08-04T05:39:16.883Z,10.10
2022-08-04T05:44:11.521Z,10.60
2022-08-04T05:49:19.392Z,11.30
2022-08-04T05:54:12.677Z,10.60
2022-08-04T05:59:13.720Z,13.70
2022-08-04T06:04:18.584Z,10.10
2022-08-04T06:09:11.152Z,8.90
2022-08-04T06:14:16.045Z,12.90
2022-08-04T06:19:59.898Z,9.50
2022-08-04T06:24:15.466Z,11.80
2022-08-04T06:29:18.666Z,8.80
2022-08-04T06:34:14.628Z,11.10
2022-08-04T06:39:12.532Z,9.10
2022-08-04T06:44:13.587Z,7.70
2022-08-04T06:49:13.033Z,7.80
2022-08-04T06:54:11.000Z,10.10
2022-08-04T06:59:15.159Z,9.10
2022-08-04T07:04:11.577Z,7.40
2022-08-04T07:09:11.091Z,9.40
2022-08-04T07:14:13.191Z,7.20
2022-08-04T07:19:13.803Z,6.90
2022-08-04T07:24:11.243Z,6.80
2022-08-04T07:29:11.453Z,6.80
2022-08-04T07:34:16.962Z,7.60
2022-08-04T07:39:27.484Z,9.00
2022-08-04T07:44:14.510Z,6.90
2022-08-04T07:49:11.608Z,3.80
2022-08-04T07:54:12.678Z,4.60
2022-08-04T07:59:11.241Z,4.80
2022-08-04T08:04:12.180Z,5.10
2022-08-04T08:09:14.546Z,5.80
2022-08-04T08:14:11.138Z,9.50
2022-08-04T08:19:11.450Z,5.00
2022-08-04T08:24:12.991Z,6.10
2022-08-04T08:29:11.519Z,7.70
2022-08-04T08:34:12.699Z,3.70
2022-08-04T08:39:11.101Z,3.80
2022-08-04T08:39:21.575Z,3.80
2022-08-04T08:44:37.586Z,3.60
2022-08-04T08:50:03.180Z,5.40
2022-08-04T08:54:29.054Z,4.90
2022-08-04T08:59:30.749Z,3.20
2022-08-04T09:04:35.224Z,3.20
2022-08-04T09:09:30.707Z,4.20
2022-08-04T09:14:19.649Z,1.90
2022-08-04T09:19:38.271Z,4.90
2022-08-04T09:24:35.458Z,4.60
2022-08-04T09:28:54.342Z,4.60
2022-08-04T09:29:16.688Z,4.40
2022-08-04T09:34:19.443Z,5.20
2022-08-04T09:35:09.557Z,5.20
2022-08-04T09:39:23.476Z,4.60
2022-08-04T09:44:49.133Z,6.10
2022-08-04T09:49:17.378Z,2.50
2022-08-04T09:54:30.894Z,4.70
2022-08-04T09:59:21.411Z,3.40
2022-08-04T09:59:30.600Z,3.40
2022-08-04T10:04:13.848Z,4.10
2022-08-04T10:07:59.570Z,4.10
2022-08-04T10:09:27.429Z,4.10
2022-08-04T10:14:28.259Z,2.70
2022-08-04T10:19:24.877Z,5.60
2022-08-04T10:24:28.163Z,4.10
2022-08-04T10:29:21.504Z,3.40
2022-08-04T10:34:16.810Z,2.60
2022-08-04T10:39:43.539Z,3.20
2022-08-04T10:44:22.622Z,2.60
2022-08-04T10:49:21.621Z,2.70
2022-08-04T10:54:14.408Z,4.70
2022-08-04T10:59:16.021Z,3.50
2022-08-04T11:04:27.173Z,6.30
2022-08-04T11:09:14.831Z,2.80
2022-08-04T11:13:56.654Z,2.80
2022-08-04T11:14:14.484Z,2.80
2022-08-04T11:17:34.165Z,2.80
2022-08-04T11:19:19.673Z,4.10
2022-08-04T11:24:17.761Z,4.60
2022-08-04T11:29:19.911Z,4.00
2022-08-04T11:34:20.247Z,7.50
2022-08-04T11:38:51.870Z,7.50
2022-08-04T11:39:14.618Z,5.30
2022-08-04T11:44:17.408Z,5.60
2022-08-04T11:49:15.483Z,4.20
2022-08-04T11:54:12.873Z,6.10
2022-08-04T11:59:11.477Z,5.80
2022-08-04T12:04:24.173Z,3.40
2022-08-04T12:09:20.501Z,3.90
2022-08-04T12:14:16.907Z,4.70
2022-08-04T12:19:17.357Z,5.10
2022-08-04T12:24:19.024Z,3.80
2022-08-04T12:29:14.556Z,4.30
2022-08-04T12:34:15.729Z,3.20
2022-08-04T12:39:17.001Z,7.00
2022-08-04T12:44:37.439Z,3.00
2022-08-04T12:49:12.904Z,4.20
2022-08-04T12:54:12.886Z,4.50
2022-08-04T12:59:13.225Z,9.20
2022-08-04T13:04:13.589Z,6.00
2022-08-04T13:09:17.633Z,5.90
2022-08-04T13:14:26.718Z,1.80
2022-08-04T13:19:11.566Z,5.30
2022-08-04T13:24:21.147Z,4.00
2022-08-04T13:29:17.263Z,3.80
2022-08-04T13:34:18.844Z,3.80
2022-08-04T13:39:16.698Z,3.30
2022-08-04T13:44:18.143Z,4.00
2022-08-04T13:49:43.135Z,5.20
2022-08-04T13:54:10.881Z,8.00
2022-08-04T13:59:15.430Z,2.70
2022-08-04T14:09:15.553Z,3.80
2022-08-04T14:14:15.394Z,6.00
2022-08-04T14:19:11.186Z,4.20
2022-08-04T14:24:10.778Z,6.10
2022-08-04T14:29:28.675Z,4.70
2022-08-04T14:34:26.343Z,6.00
2022-08-04T14:39:12.064Z,6.20
2022-08-04T14:44:12.025Z,5.20
2022-08-04T14:49:12.247Z,3.50
2022-08-04T14:54:17.798Z,4.40
2022-08-04T14:59:11.536Z,5.10
2022-08-04T15:04:11.252Z,3.90
2022-08-04T15:09:10.897Z,5.00
2022-08-04T15:14:36.411Z,3.70
2022-08-04T15:19:11.486Z,5.60
2022-08-04T15:24:11.290Z,4.90
2022-08-04T15:29:16.845Z,3.90
2022-08-04T15:34:12.622Z,1.80
2022-08-04T15:39:30.834Z,7.70
2022-08-04T15:44:30.526Z,7.50
2022-08-04T15:49:22.111Z,5.70
2022-08-04T15:54:27.946Z,2.00
2022-08-04T15:59:16.455Z,3.60
2022-08-04T16:04:23.119Z,3.70
2022-08-04T16:09:23.872Z,4.10
2022-08-04T16:14:10.837Z,8.30
2022-08-04T16:19:20.396Z,6.30
2022-08-04T16:24:26.605Z,3.90
2022-08-04T16:29:25.824Z,6.30
2022-08-04T16:34:48.427Z,5.00
2022-08-04T16:39:18.110Z,8.30
2022-08-04T16:44:51.652Z,8.50
2022-08-04T16:49:11.161Z,5.00
2022-08-04T16:54:11.407Z,6.90
2022-08-04T16:59:13.100Z,2.80
2022-08-04T17:04:10.926Z,4.10
2022-08-04T17:09:13.344Z,7.10
2022-08-04T17:14:12.273Z,7.10
2022-08-04T17:19:24.263Z,7.80
2022-08-04T17:24:15.234Z,7.50
2022-08-04T17:29:11.013Z,7.70
2022-08-04T17:34:15.862Z,6.90
2022-08-04T17:39:16.680Z,8.30
2022-08-04T17:44:12.730Z,7.50
2022-08-04T17:49:19.569Z,6.70
2022-08-04T17:54:12.449Z,4.50
2022-08-04T17:59:55.738Z,5.40
2022-08-04T18:04:22.587Z,9.80
2022-08-04T18:09:22.486Z,6.00
2022-08-04T18:14:10.848Z,5.80
2022-08-04T18:19:12.701Z,6.60
2022-08-04T18:24:12.857Z,5.60
2022-08-04T18:29:31.198Z,6.00
2022-08-04T18:39:12.444Z,5.40
2022-08-04T18:44:12.020Z,11.50
2022-08-04T18:50:31.936Z,21.20
2022-08-04T18:54:11.097Z,15.50
2022-08-04T18:59:16.402Z,12.90
2022-08-04T19:04:32.172Z,10.90
2022-08-04T19:09:16.215Z,9.70
2022-08-04T19:14:13.769Z,9.50
2022-08-04T19:19:10.901Z,10.70
2022-08-04T19:24:31.417Z,10.90
2022-08-04T19:29:10.840Z,8.60
2022-08-04T19:34:11.533Z,8.90
2022-08-04T19:39:12.080Z,7.70
2022-08-04T19:44:11.533Z,12.40
2022-08-04T19:50:05.088Z,11.30
2022-08-04T19:54:17.237Z,11.20
2022-08-04T19:59:11.585Z,14.20
2022-08-04T20:04:11.304Z,14.00
2022-08-04T20:09:25.098Z,14.80
2022-08-04T20:14:11.946Z,13.20
2022-08-04T20:19:14.154Z,19.70
2022-08-04T20:24:39.033Z,14.60
2022-08-04T20:29:10.732Z,18.90
2022-08-04T20:34:11.452Z,11.40
2022-08-04T20:39:11.633Z,21.50
2022-08-04T20:44:11.125Z,11.70
2022-08-04T20:49:10.826Z,9.70
2022-08-04T20:54:16.086Z,13.90
2022-08-04T20:59:10.770Z,12.20
2022-08-04T21:04:28.163Z,19.20
2022-08-04T21:09:15.587Z,14.40
2022-08-04T21:14:11.883Z,15.00
2022-08-04T21:19:13.426Z,10.60
2022-08-04T21:24:13.432Z,14.10
2022-08-04T21:29:10.848Z,14.10
2022-08-04T21:34:11.235Z,10.80
2022-08-04T21:39:12.218Z,11.20
2022-08-04T21:44:10.610Z,10.00
2022-08-04T21:49:01.383Z,11.40
2022-08-04T21:49:10.572Z,11.40
2022-08-04T21:51:58.807Z,11.40
2022-08-04T21:54:11.676Z,11.90
2022-08-04T21:59:14.243Z,8.00
2022-08-04T22:03:52.351Z,11.30
2022-08-04T22:04:10.606Z,11.30
2022-08-04T22:08:50.135Z,14.60
2022-08-04T22:09:14.490Z,14.60
2022-08-04T22:14:11.823Z,10.40
2022-08-04T22:19:11.520Z,11.60
2022-08-04T22:24:13.638Z,11.70
2022-08-04T22:29:14.092Z,11.50
2022-08-04T22:34:10.607Z,11.50
2022-08-04T22:39:10.794Z,9.50
2022-08-04T22:44:15.490Z,11.00
2022-08-04T22:49:10.633Z,13.40
2022-08-04T22:54:12.681Z,10.30
2022-08-04T22:58:12.083Z,9.40
2022-08-04T22:59:11.554Z,9.40
2022-08-04T23:02:01.647Z,14.50
2022-08-04T23:03:51.169Z,14.50
2022-08-04T23:04:10.544Z,14.50
2022-08-04T23:07:24.155Z,11.00
2022-08-04T23:09:11.833Z,11.00
2022-08-04T23:13:49.059Z,9.20
2022-08-04T23:14:10.626Z,9.20
2022-08-04T23:15:35.764Z,9.20
2022-08-04T23:17:17.794Z,11.80
2022-08-04T23:19:12.272Z,11.80
2022-08-04T23:23:21.136Z,12.50
2022-08-04T23:24:12.445Z,12.50
2022-08-04T23:27:18.702Z,11.10
2022-08-04T23:29:10.754Z,11.10
2022-08-04T23:32:20.769Z,11.20
2022-08-04T23:34:12.327Z,11.20
2022-08-04T23:35:07.421Z,11.20
2022-08-04T23:38:30.350Z,14.10
2022-08-04T23:39:10.659Z,14.10
2022-08-04T23:42:53.644Z,9.90
2022-08-04T23:44:10.612Z,9.90
2022-08-04T23:46:31.402Z,13.30
2022-08-04T23:48:15.267Z,13.30
2022-08-04T23:49:10.535Z,13.30
2022-08-04T23:52:27.593Z,9.50
2022-08-04T23:54:10.633Z,9.50
2022-08-04T23:59:27.503Z,9.20
